Time;durP1;ratioP1;P1;durP2;ratioP2;P2;SDS_P1;SDS_P2;PMS_P1;PMS_P2;Temp;Humidity;BMP_temperature;BMP_pressure;BME280_temperature;BME280_humidity;BME280_pressure;Samples;Min_cycle;Max_cycle;Signal;HPM_P1;HPM_P2
2023/05/20 00:01:59;;;;;;;3.67;1.10;;;13.60;99.90;;;12.54;100.00;97877.38;5025362;28;20085;-76
2023/05/20 00:04:26;;;;;;;3.40;1.17;;;13.50;99.90;;;12.63;100.00;97877.84;5012664;28;20060;-76
2023/05/20 00:06:53;;;;;;;2.88;1.38;;;13.50;99.90;;;12.60;100.00;97875.38;5016053;28;20080;-76
2023/05/20 00:09:21;;;;;;;3.88;1.40;;;13.50;99.90;;;12.50;100.00;97878.41;5006149;28;20037;-76
2023/05/20 00:11:48;;;;;;;3.92;1.15;;;13.50;99.90;;;12.54;100.00;97873.88;5011051;28;20064;-76
2023/05/20 00:14:15;;;;;;;5.05;1.23;;;13.50;99.90;;;12.63;100.00;97880.44;4991822;28;20045;-76
2023/05/20 00:16:42;;;;;;;6.25;1.38;;;13.50;99.90;;;12.52;100.00;97875.72;5007251;28;20454;-75
2023/05/20 00:19:13;;;;;;;5.03;1.40;;;13.50;99.90;;;12.54;100.00;97873.88;5024249;28;20140;-75
2023/05/20 00:21:40;;;;;;;3.55;1.33;;;13.50;99.90;;;12.59;100.00;97873.69;5024489;28;20053;-77
2023/05/20 00:24:08;;;;;;;4.60;1.38;;;13.50;99.90;;;12.53;100.00;97867.00;5008400;28;20114;-76
2023/05/20 00:26:35;;;;;;;5.82;1.30;;;13.40;99.90;;;12.45;100.00;97872.56;5009515;28;20068;-76
2023/05/20 00:29:02;;;;;;;3.15;1.10;;;13.50;99.90;;;12.56;100.00;97865.09;5027050;28;20085;-75
2023/05/20 00:31:29;;;;;;;6.82;1.38;;;13.40;99.90;;;12.47;100.00;97867.28;5010713;28;20085;-76
2023/05/20 00:33:57;;;;;;;3.53;1.08;;;13.50;99.90;;;12.50;100.00;97865.41;5028560;28;20136;-76
2023/05/20 00:36:24;;;;;;;3.17;1.40;;;13.40;99.90;;;12.46;100.00;97869.03;5025940;28;20053;-76
2023/05/20 00:38:51;;;;;;;5.18;1.40;;;13.40;99.90;;;12.42;100.00;97864.03;5025389;28;20041;-76
2023/05/20 00:41:20;;;;;;;3.25;1.50;;;13.40;99.90;;;12.45;100.00;97864.75;5028432;28;20463;-75
2023/05/20 00:43:47;;;;;;;4.00;1.25;;;13.40;99.90;;;12.40;100.00;97866.72;5026191;28;20057;-75
2023/05/20 00:46:14;;;;;;;4.10;1.33;;;13.40;99.90;;;12.39;100.00;97877.22;5010649;28;20526;-75
2023/05/20 00:48:43;;;;;;;5.65;1.35;;;13.40;99.90;;;12.34;100.00;97872.22;4997164;28;20049;-77
2023/05/20 00:51:12;;;;;;;2.70;1.30;;;13.30;99.90;;;12.40;100.00;97868.47;5027368;28;20395;-76
2023/05/20 00:53:40;;;;;;;2.85;1.25;;;13.20;99.90;;;12.37;100.00;97871.22;5019454;28;20045;-76
2023/05/20 00:56:08;;;;;;;4.43;1.45;;;13.30;99.90;;;12.35;100.00;97872.13;5013804;28;20612;-76
2023/05/20 00:58:36;;;;;;;3.10;1.13;;;;;;;12.33;100.00;97871.34;5008319;28;20048;-77
2023/05/20 01:01:05;;;;;;;7.28;1.60;;;13.30;99.90;;;12.30;100.00;97858.47;5009429;28;20057;-76
2023/05/20 01:03:32;;;;;;;4.72;1.65;;;13.30;99.90;;;12.23;100.00;97864.88;5025596;28;20390;-75
2023/05/20 01:06:00;;;;;;;2.30;1.25;;;13.30;99.90;;;12.18;100.00;97863.38;5003601;28;20569;-75
2023/05/20 01:08:28;;;;;;;3.40;1.45;;;;;;;12.20;100.00;97864.16;5009902;28;20048;-76
2023/05/20 01:11:05;;;;;;;5.10;1.58;;;13.20;99.90;;;12.15;100.00;97859.16;5003785;28;20049;-75
2023/05/20 01:13:42;;;;;;;3.25;1.40;;;13.20;99.90;;;12.14;100.00;97857.47;5010534;28;20133;-75
2023/05/20 01:16:10;;;;;;;4.55;1.30;;;13.10;99.90;;;12.12;100.00;97865.34;5015080;28;20049;-75
2023/05/20 01:18:39;;;;;;;3.25;1.60;;;13.10;99.90;;;12.10;100.00;97866.34;4990454;28;20578;-75
2023/05/20 01:21:13;;;;;;;3.65;1.30;;;13.10;99.90;;;11.98;100.00;97864.28;5009774;28;20053;-76
2023/05/20 01:23:41;;;;;;;4.70;1.55;;;13.10;99.90;;;11.95;100.00;97861.78;5025533;28;20501;-76
2023/05/20 01:26:12;;;;;;;4.05;1.75;;;13.00;99.90;;;11.70;100.00;97874.06;5007834;28;20563;-76
2023/05/20 01:28:42;;;;;;;12.13;1.80;;;12.90;99.90;;;11.75;100.00;97866.09;5013092;28;20129;-75
2023/05/20 01:31:32;;;;;;;3.10;1.27;;;12.80;99.90;;;11.73;100.00;97858.34;5031800;28;20045;-74
2023/05/20 01:34:00;;;;;;;4.32;1.60;;;12.80;99.90;;;11.68;100.00;97862.91;5015353;28;20077;-75
2023/05/20 01:36:28;;;;;;;4.45;1.42;;;12.70;99.90;;;11.56;100.00;97853.00;4995723;28;20489;-74
2023/05/20 01:38:56;;;;;;;2.60;1.30;;;12.70;99.90;;;11.55;100.00;97855.69;5006649;28;20592;-76
2023/05/20 01:41:25;;;;;;;4.03;1.70;;;12.60;99.90;;;11.59;100.00;97859.84;4999482;28;20052;-76
2023/05/20 01:43:54;;;;;;;3.55;1.60;;;12.60;99.90;;;11.54;100.00;97859.16;5009859;28;20127;-76
2023/05/20 01:46:22;;;;;;;8.15;1.60;;;12.60;99.90;;;11.55;100.00;97856.50;5007906;28;20111;-75
2023/05/20 01:48:49;;;;;;;6.97;1.70;;;12.50;99.90;;;11.47;100.00;97855.97;5012010;28;20473;-76
2023/05/20 01:51:16;;;;;;;3.65;1.33;;;12.50;99.90;;;11.40;100.00;97857.97;5004781;28;20057;-75
2023/05/20 01:53:44;;;;;;;7.07;1.60;;;12.40;99.90;;;11.35;100.00;97856.50;5015173;28;20053;-75
2023/05/20 01:56:11;;;;;;;4.70;1.75;;;12.40;99.90;;;11.35;100.00;97856.50;5014241;28;20060;-75
2023/05/20 01:58:39;;;;;;;6.53;2.17;;;12.40;99.90;;;11.27;100.00;97856.81;5016293;28;20047;-75
2023/05/20 02:01:07;;;;;;;3.63;1.73;;;12.30;99.90;;;11.18;100.00;97855.44;5007559;28;20050;-75
2023/05/20 02:03:34;;;;;;;6.50;1.80;;;12.30;99.90;;;11.16;100.00;97846.88;5011001;28;20590;-75
2023/05/20 02:06:01;;;;;;;3.00;1.33;;;12.20;99.90;;;11.13;100.00;97853.91;5011561;28;20558;-76
2023/05/20 02:08:28;;;;;;;4.22;1.92;;;12.20;99.90;;;11.09;100.00;97856.66;5021299;28;20153;-76
2023/05/20 02:10:55;;;;;;;7.38;2.20;;;12.20;99.90;;;11.12;100.00;97849.66;5029064;28;20041;-75
2023/05/20 02:13:22;;;;;;;2.78;1.40;;;12.10;99.90;;;10.96;100.00;97862.41;5013071;28;20482;-76
2023/05/20 02:15:50;;;;;;;5.05;1.80;;;12.10;99.90;;;10.95;100.00;97856.38;5027745;28;20053;-76
2023/05/20 02:18:17;;;;;;;5.45;1.80;;;12.10;99.90;;;10.95;100.00;97856.38;5013586;28;20045;-75
2023/05/20 02:20:45;;;;;;;3.85;1.80;;;12.00;99.90;;;10.87;100.00;97855.81;4997456;28;20111;-75
2023/05/20 02:23:12;;;;;;;3.70;1.92;;;12.00;99.90;;;10.92;100.00;97866.84;5030568;28;20046;-75
2023/05/20 02:25:40;;;;;;;7.78;2.22;;;12.00;99.90;;;10.88;100.00;97865.31;5024460;28;20528;-76
2023/05/20 02:28:09;;;;;;;3.80;1.98;;;12.00;99.90;;;10.77;100.00;97867.47;5003348;28;20168;-76
2023/05/20 02:30:38;;;;;;;3.78;1.63;;;11.90;99.90;;;10.76;100.00;97866.59;5014455;28;20087;-75
2023/05/20 02:33:05;;;;;;;4.63;2.03;;;11.90;99.90;;;10.68;100.00;97866.06;4987783;28;20049;-77
2023/05/20 02:35:33;;;;;;;3.30;1.60;;;11.80;99.90;;;10.63;100.00;97866.25;5025501;28;20041;-75
2023/05/20 02:38:00;;;;;;;5.57;1.88;;;11.80;99.90;;;10.57;100.00;97863.03;5014068;28;20053;-75
2023/05/20 02:40:28;;;;;;;3.95;1.70;;;11.70;99.90;;;10.51;100.00;97871.88;5011272;28;20106;-75
2023/05/20 02:42:55;;;;;;;3.35;1.92;;;11.60;99.90;;;10.48;100.00;97864.22;5037345;28;20787;-76
2023/05/20 02:45:25;;;;;;;5.15;1.98;;;11.60;99.90;;;10.38;100.00;97868.94;5019327;28;20567;-75
2023/05/20 02:47:52;;;;;;;4.57;1.90;;;11.60;99.90;;;10.23;100.00;97865.09;5022646;28;20434;-75
2023/05/20 02:50:19;;;;;;;6.15;2.25;;;11.50;99.90;;;10.16;100.00;97863.63;5011492;28;20171;-75
2023/05/20 02:52:47;;;;;;;4.20;2.40;;;11.40;99.90;;;10.15;100.00;97861.09;4997870;28;20091;-75
2023/05/20 02:55:14;;;;;;;4.38;1.67;;;11.40;99.90;;;10.11;100.00;97860.38;5025721;28;20084;-75
2023/05/20 02:57:41;;;;;;;5.20;1.98;;;11.30;99.90;;;10.09;100.00;97864.75;5024560;28;20042;-75
2023/05/20 03:00:10;;;;;;;4.65;2.25;;;11.30;99.90;;;10.04;100.00;97864.94;5028366;28;20131;-75
2023/05/20 03:02:40;;;;;;;3.17;1.80;;;11.30;99.90;;;10.03;100.00;97857.19;4999463;28;20418;-75
2023/05/20 03:05:08;;;;;;;4.85;1.95;;;11.20;99.90;;;9.98;100.00;97859.13;4997102;28;20052;-76
2023/05/20 03:07:36;;;;;;;7.28;2.05;;;11.20;99.90;;;9.98;100.00;97859.13;5011064;28;20107;-75
2023/05/20 03:10:05;;;;;;;4.25;2.03;;;11.10;99.90;;;9.97;100.00;97853.09;5027234;28;20969;-75
2023/05/20 03:12:32;;;;;;;7.82;2.08;;;11.10;99.90;;;9.79;100.00;97854.56;5006128;28;20085;-75
2023/05/20 03:14:59;;;;;;;6.20;1.90;;;11.10;99.90;;;9.89;100.00;97854.25;5009434;28;20049;-75
2023/05/20 03:17:27;;;;;;;4.63;2.30;;;11.00;99.90;;;9.87;100.00;97856.88;5026896;28;20477;-76
2023/05/20 03:19:55;;;;;;;5.82;2.45;;;11.00;99.90;;;9.83;100.00;97855.34;5026804;28;20076;-75
2023/05/20 03:22:22;;;;;;;5.78;2.40;;;11.00;99.90;;;9.87;100.00;97850.88;5008319;28;20053;-75
2023/05/20 03:24:51;;;;;;;6.13;2.10;;;11.00;99.90;;;9.87;100.00;97851.69;5025683;28;20151;-76
2023/05/20 03:27:18;;;;;;;5.43;2.30;;;11.00;99.90;;;9.81;100.00;97849.34;5028820;28;20041;-75
2023/05/20 03:29:47;;;;;;;5.85;2.45;;;10.90;99.90;;;9.77;100.00;97858.13;5012540;28;20103;-75
2023/05/20 03:32:14;;;;;;;4.60;2.30;;;10.90;99.90;;;9.74;100.00;97855.63;5007165;28;20144;-75
2023/05/20 03:34:41;;;;;;;5.70;2.35;;;10.90;99.90;;;9.73;100.00;97867.75;5003230;28;21073;-75
2023/05/20 03:37:08;;;;;;;5.28;2.15;;;10.90;99.90;;;9.63;100.00;97862.03;5017925;28;20088;-75
2023/05/20 03:39:36;;;;;;;4.05;2.17;;;10.80;99.90;;;9.73;100.00;97854.78;5020632;28;20046;-75
2023/05/20 03:42:04;;;;;;;4.70;2.10;;;10.90;99.90;;;9.67;100.00;97860.19;5016335;28;20077;-74
2023/05/20 03:44:31;;;;;;;3.72;1.80;;;10.80;99.90;;;9.76;100.00;97865.06;5009470;28;20075;-75
2023/05/20 03:46:58;;;;;;;5.45;2.30;;;10.90;99.90;;;9.75;100.00;97858.16;5001150;28;20132;-74
2023/05/20 03:49:25;;;;;;;4.50;2.15;;;10.90;99.90;;;9.77;100.00;97860.72;5009296;28;20081;-76
2023/05/20 03:51:52;;;;;;;5.97;2.38;;;10.90;99.90;;;9.53;100.00;97871.00;5026483;28;20061;-75
2023/05/20 03:54:20;;;;;;;4.70;2.22;;;10.80;99.90;;;9.50;100.00;97876.31;5022248;28;20442;-74
2023/05/20 03:56:48;;;;;;;4.43;2.20;;;10.80;99.90;;;9.26;100.00;97882.28;5000565;28;20131;-75
2023/05/20 03:59:15;;;;;;;6.03;2.30;;;10.70;99.90;;;9.33;100.00;97886.41;5003762;28;20126;-74
2023/05/20 04:01:42;;;;;;;3.80;2.25;;;10.60;99.90;;;9.23;100.00;97884.97;5005116;28;20100;-78
2023/05/20 04:04:09;;;;;;;5.18;2.47;;;10.60;99.90;;;9.14;100.00;97886.13;5030075;28;20429;-77
2023/05/20 04:06:36;;;;;;;4.28;2.33;;;10.50;99.90;;;9.21;100.00;97891.06;5011930;28;20061;-77
2023/05/20 04:09:03;;;;;;;5.75;2.47;;;10.40;99.90;;;9.16;100.00;97886.94;5008394;28;20081;-74
2023/05/20 04:11:31;;;;;;;8.38;2.47;;;10.40;99.90;;;9.19;100.00;97892.88;5007370;28;20044;-78
2023/05/20 04:13:59;;;;;;;6.78;2.60;;;10.40;99.90;;;9.09;100.00;97898.38;5002997;28;20052;-75
2023/05/20 04:16:26;;;;;;;5.93;2.50;;;10.40;99.90;;;9.33;100.00;97899.34;5026854;28;20065;-77
2023/05/20 04:18:53;;;;;;;9.23;2.97;;;10.40;99.90;;;9.35;100.00;97898.41;5004260;28;20054;-77
2023/05/20 04:21:20;;;;;;;6.00;2.30;;;10.50;99.90;;;9.54;100.00;97893.44;5019068;28;20861;-77
2023/05/20 04:23:48;;;;;;;4.00;1.92;;;10.50;99.90;;;9.43;100.00;97892.97;5000820;28;20060;-74
2023/05/20 04:26:15;;;;;;;4.25;2.35;;;10.50;99.90;;;9.44;100.00;97897.22;5030777;28;20049;-74
2023/05/20 04:28:43;;;;;;;4.15;2.13;;;10.60;99.90;;;9.30;100.00;97897.69;5003634;28;20053;-75
2023/05/20 04:31:11;;;;;;;5.00;2.60;;;10.60;99.90;;;9.29;100.00;97901.19;5015960;28;20448;-75
2023/05/20 04:33:38;;;;;;;3.30;2.05;;;10.60;99.90;;;9.32;100.00;97897.63;5030646;28;20045;-74
2023/05/20 04:36:14;;;;;;;4.35;2.20;;;10.50;99.90;;;9.51;100.00;97898.75;5011050;28;20045;-76
2023/05/20 04:38:43;;;;;;;3.53;2.30;;;10.60;99.90;;;9.64;100.00;97893.97;5024669;28;20055;-75
2023/05/20 04:41:10;;;;;;;5.22;2.72;;;10.60;99.90;;;9.70;100.00;97888.59;5004491;28;20045;-77
2023/05/20 04:43:38;;;;;;;6.40;2.30;;;10.70;99.90;;;9.78;100.00;97876.22;5017092;28;20045;-77
2023/05/20 04:46:06;;;;;;;4.10;2.20;;;10.70;99.90;;;9.73;100.00;97880.69;5028514;28;20050;-74
2023/05/20 04:48:33;;;;;;;6.25;2.10;;;10.80;99.90;;;9.80;100.00;97874.41;5012732;28;20041;-75
2023/05/20 04:51:01;;;;;;;4.25;2.20;;;10.80;99.90;;;9.91;100.00;97875.78;5014140;28;20107;-74
2023/05/20 04:53:32;;;;;;;3.80;2.08;;;10.80;99.90;;;9.99;100.00;97877.22;4994076;28;20468;-76
2023/05/20 04:55:59;;;;;;;5.70;2.20;;;10.90;99.90;;;10.15;100.00;97874.06;5017559;28;20077;-77
2023/05/20 04:58:29;;;;;;;4.75;2.50;;;11.00;99.90;;;10.23;100.00;97872.03;5018403;28;20928;-76
2023/05/20 05:00:56;;;;;;;5.68;2.53;;;11.10;99.90;;;10.37;100.00;97859.44;4981877;28;20092;-77
2023/05/20 05:03:23;;;;;;;3.33;1.80;;;11.10;99.90;;;10.54;100.00;97865.75;5029797;28;20421;-76
2023/05/20 05:05:55;;;;;;;4.10;2.63;;;11.30;99.90;;;10.73;100.00;97856.34;5013931;28;20056;-76
2023/05/20 05:08:22;;;;;;;2.83;2.00;;;11.40;99.90;;;10.88;100.00;97853.16;5011289;28;20160;-76
2023/05/20 05:10:49;;;;;;;5.38;2.28;;;11.50;99.90;;;10.91;100.00;97844.41;5019413;28;20137;-77
2023/05/20 05:13:16;;;;;;;8.30;2.33;;;11.60;99.90;;;11.05;100.00;97821.31;5026872;28;20103;-78
2023/05/20 05:15:43;;;;;;;7.60;2.63;;;11.70;99.90;;;11.07;100.00;97826.44;5027071;28;20504;-77
2023/05/20 05:18:11;;;;;;;3.90;2.40;;;11.90;99.90;;;11.20;100.00;97826.78;4985437;28;20049;-77
2023/05/20 05:20:38;;;;;;;3.55;1.85;;;12.00;99.90;;;11.49;100.00;97826.44;5029818;28;20056;-75
2023/05/20 05:23:05;;;;;;;3.67;2.45;;;12.10;99.90;;;11.64;100.00;97826.69;5012691;28;20084;-76
2023/05/20 05:25:33;;;;;;;5.22;2.42;;;12.20;99.90;;;11.87;100.00;97823.09;5014662;28;20064;-76
2023/05/20 05:28:00;;;;;;;4.32;2.40;;;12.40;99.90;;;11.88;100.00;97810.06;5026088;28;20049;-77
2023/05/20 05:30:27;;;;;;;4.85;2.22;;;12.60;99.90;;;12.04;100.00;97807.63;5011597;28;20551;-76
2023/05/20 05:32:54;;;;;;;5.88;2.45;;;12.70;99.90;;;12.13;100.00;97804.59;5012906;28;20061;-77
2023/05/20 05:35:22;;;;;;;6.68;2.42;;;12.80;99.90;;;12.23;100.00;97796.38;4995348;28;20673;-76
2023/05/20 05:37:49;;;;;;;6.60;2.50;;;12.90;99.90;;;12.10;100.00;97789.09;5027259;28;20502;-77
2023/05/20 05:40:16;;;;;;;4.28;2.33;;;13.00;99.90;;;12.12;100.00;97787.28;5008484;28;20222;-78
2023/05/20 05:42:43;;;;;;;9.68;2.60;;;13.00;99.90;;;12.30;100.00;97789.97;4989074;28;20054;-76
2023/05/20 05:45:11;;;;;;;5.97;2.50;;;13.10;99.90;;;12.38;100.00;97789.59;5023239;28;20049;-76
2023/05/20 05:47:38;;;;;;;4.90;2.72;;;13.10;99.90;;;12.32;100.00;97790.75;4994552;28;20057;-76
2023/05/20 05:50:06;;;;;;;5.60;2.80;;;13.20;99.90;;;12.47;100.00;97791.78;5006913;28;20046;-77
2023/05/20 05:52:32;;;;;;;8.05;2.58;;;13.20;99.90;;;12.57;100.00;97785.25;4997375;28;20049;-76
2023/05/20 05:55:00;;;;;;;5.88;2.40;;;13.30;99.90;;;12.67;100.00;97780.44;5007607;28;20069;-77
2023/05/20 05:57:27;;;;;;;6.57;2.63;;;13.40;99.90;;;12.75;100.00;97780.91;5021560;28;20060;-77
2023/05/20 05:59:54;;;;;;;3.72;2.20;;;13.50;99.90;;;12.94;100.00;97786.06;5028101;28;20068;-77
2023/05/20 06:02:21;;;;;;;5.78;2.67;;;13.60;99.90;;;13.25;100.00;97772.38;5010286;28;20518;-77
2023/05/20 06:04:49;;;;;;;4.22;2.72;;;13.70;99.90;;;13.21;100.00;97764.78;5027196;28;20049;-76
2023/05/20 06:07:16;;;;;;;7.28;2.83;;;13.80;99.90;;;13.00;100.00;97774.50;5008718;28;20121;-77
2023/05/20 06:09:44;;;;;;;4.32;2.30;;;13.90;99.90;;;13.24;100.00;97762.84;5032770;28;20127;-77
2023/05/20 06:12:11;;;;;;;8.90;3.00;;;13.90;99.90;;;13.16;100.00;97773.66;4994368;28;20049;-76
2023/05/20 06:14:40;;;;;;;6.88;2.85;;;13.80;99.90;;;13.22;100.00;97762.09;5025014;28;20509;-77
2023/05/20 06:17:07;;;;;;;6.13;2.72;;;13.90;99.90;;;13.55;100.00;97762.16;5010141;28;20053;-77
2023/05/20 06:19:34;;;;;;;5.72;2.70;;;14.00;99.90;;;13.64;100.00;97760.84;5011775;28;20485;-77
2023/05/20 06:22:01;;;;;;;5.50;2.50;;;14.20;99.90;;;13.67;100.00;97757.25;5032383;28;20107;-77
2023/05/20 06:24:28;;;;;;;3.70;2.50;;;14.30;99.90;;;13.58;100.00;97750.72;5008906;28;20054;-78
2023/05/20 06:26:55;;;;;;;5.90;2.90;;;14.40;99.90;;;13.72;100.00;97750.84;5004902;28;20050;-77
2023/05/20 06:29:22;;;;;;;4.88;2.70;;;14.40;99.90;;;13.59;100.00;97740.22;5011690;28;20172;-77
2023/05/20 06:31:49;;;;;;;3.85;2.42;;;14.40;99.90;;;13.82;100.00;97748.59;5008626;28;20046;-76
2023/05/20 06:34:17;;;;;;;6.45;2.55;;;14.40;99.90;;;13.95;100.00;97744.41;5019772;28;20143;-77
2023/05/20 06:36:44;;;;;;;7.55;2.65;;;14.50;99.90;;;13.96;100.00;97753.94;5012261;28;20056;-77
2023/05/20 06:39:11;;;;;;;5.25;3.10;;;14.60;99.90;;;14.26;100.00;97758.44;5028971;28;20052;-77
2023/05/20 06:41:39;;;;;;;5.13;2.95;;;14.90;99.90;;;14.46;100.00;97751.25;5009704;28;20098;-76
2023/05/20 06:44:07;;;;;;;5.20;2.78;;;15.00;99.90;;;14.17;100.00;97751.94;5025492;28;20477;-77
2023/05/20 06:46:34;;;;;;;6.20;3.10;;;15.10;99.90;;;14.02;100.00;97752.75;5005930;28;20056;-77
2023/05/20 06:49:02;;;;;;;4.97;3.10;;;15.00;99.90;;;13.75;100.00;97760.28;5023553;28;20052;-77
2023/05/20 06:51:29;;;;;;;4.75;3.00;;;14.90;99.90;;;13.72;100.00;97755.22;5005783;28;20049;-77
2023/05/20 06:53:58;;;;;;;5.00;3.15;;;14.80;99.90;;;13.70;100.00;97755.31;5000845;28;20049;-77
2023/05/20 06:56:25;;;;;;;6.38;3.20;;;14.70;99.90;;;13.74;100.00;97754.22;5013990;28;20145;-77
2023/05/20 06:58:54;;;;;;;4.88;3.28;;;14.60;99.90;;;13.93;100.00;97751.47;5014218;28;20115;-76
2023/05/20 07:01:21;;;;;;;5.88;2.97;;;14.70;99.90;;;14.01;100.00;97748.47;4992602;28;20045;-75
2023/05/20 07:03:49;;;;;;;5.20;2.80;;;14.80;99.90;;;14.04;100.00;97753.50;5008925;28;20157;-74
2023/05/20 07:06:16;;;;;;;5.13;3.15;;;14.80;99.90;;;14.19;100.00;97749.25;4997126;28;20049;-74
2023/05/20 07:08:44;;;;;;;6.30;3.33;;;15.00;99.90;;;14.32;100.00;97739.81;5026625;28;20424;-75
2023/05/20 07:11:12;;;;;;;5.47;3.35;;;15.10;99.90;;;14.36;100.00;97741.31;5009702;28;20053;-76
2023/05/20 07:13:40;;;;;;;5.47;3.25;;;15.20;99.90;;;14.43;100.00;97747.88;5021862;28;20077;-76
2023/05/20 07:16:07;;;;;;;9.45;3.50;;;15.20;99.90;;;14.54;100.00;97736.00;5012829;28;20411;-76
2023/05/20 07:18:35;;;;;;;5.50;2.92;;;15.30;99.90;;;14.85;100.00;97733.38;5012828;28;20044;-77
2023/05/20 07:21:02;;;;;;;6.80;3.30;;;15.40;99.90;;;14.85;100.00;97754.28;4985381;28;20110;-76
2023/05/20 07:23:29;;;;;;;8.73;3.72;;;15.50;99.90;;;14.54;100.00;97742.09;5012766;28;20080;-78
2023/05/20 07:25:56;;;;;;;10.10;3.47;;;15.40;99.90;;;14.51;100.00;97744.03;5027540;28;20053;-76
2023/05/20 07:28:23;;;;;;;6.25;3.78;;;15.40;99.90;;;14.48;100.00;97737.16;5000102;28;20591;-77
2023/05/20 07:30:50;;;;;;;6.15;3.65;;;15.40;99.90;;;14.39;100.00;97738.56;5018810;28;20052;-77
2023/05/20 07:33:19;;;;;;;7.60;3.85;;;15.50;99.90;;;14.20;100.00;97735.25;5015283;28;20433;-76
2023/05/20 07:35:47;;;;;;;6.22;3.70;;;15.30;99.90;;;14.20;100.00;97743.91;4989694;28;20052;-76
2023/05/20 07:38:15;;;;;;;8.57;3.70;;;15.30;99.90;;;14.22;100.00;97739.47;4990027;28;20045;-76
2023/05/20 07:40:42;;;;;;;5.97;3.53;;;15.20;99.90;;;14.41;100.00;97741.94;5022992;28;20465;-77
2023/05/20 07:43:09;;;;;;;5.70;3.50;;;15.10;99.90;;;14.48;100.00;97749.41;5010080;28;20053;-78
2023/05/20 07:45:37;;;;;;;5.70;3.28;;;15.10;99.90;;;14.40;100.00;97736.78;4992295;28;20052;-76
2023/05/20 07:48:07;;;;;;;6.93;3.70;;;15.20;99.90;;;14.52;100.00;97743.06;5010292;28;20045;-76
2023/05/20 07:50:35;;;;;;;5.70;3.60;;;15.30;99.90;;;14.36;100.00;97740.47;5009342;28;20049;-77
2023/05/20 07:53:02;;;;;;;7.47;3.80;;;15.20;99.90;;;14.61;100.00;97740.81;4991932;28;20470;-76
2023/05/20 07:55:30;;;;;;;6.57;3.70;;;15.30;99.90;;;14.60;100.00;97733.09;5004676;28;20045;-76
2023/05/20 07:57:57;;;;;;;5.05;3.53;;;15.40;99.90;;;14.79;100.00;97738.94;5013354;28;20049;-76
2023/05/20 08:00:24;;;;;;;7.78;3.53;;;15.50;99.90;;;14.80;100.00;97738.03;4992629;28;20056;-77
2023/05/20 08:02:51;;;;;;;6.32;4.03;;;15.50;99.90;;;14.89;100.00;97730.56;5024426;28;20128;-77
2023/05/20 08:05:21;;;;;;;5.05;3.72;;;15.60;99.90;;;14.79;100.00;97720.66;5008814;28;20942;-75
2023/05/20 08:07:49;;;;;;;6.72;4.05;;;15.60;99.90;;;14.87;100.00;97728.06;5008258;28;20103;-77
2023/05/20 08:10:16;;;;;;;6.43;3.90;;;15.70;99.90;;;15.08;100.00;97733.81;5022826;28;20571;-77
2023/05/20 08:12:45;;;;;;;6.40;3.85;;;15.70;99.90;;;15.11;100.00;97727.56;4993591;28;20132;-77
2023/05/20 08:15:12;;;;;;;5.18;3.30;;;15.60;99.90;;;15.17;100.00;97719.38;5004010;28;20049;-76
2023/05/20 08:17:40;;;;;;;7.43;3.80;;;15.80;99.90;;;15.30;100.00;97730.75;5008819;28;20045;-78
2023/05/20 08:20:08;;;;;;;7.03;4.75;;;16.00;99.90;;;15.12;100.00;97727.47;5002021;28;20465;-76
2023/05/20 08:22:36;;;;;;;5.40;4.03;;;16.00;99.90;;;15.13;100.00;97718.69;5011675;28;20045;-76
2023/05/20 08:25:07;;;;;;;5.97;3.67;;;15.90;99.90;;;15.26;100.00;97724.06;5008672;28;20049;-76
2023/05/20 08:27:38;;;;;;;6.35;3.78;;;16.00;99.90;;;15.20;100.00;97727.03;5010347;28;20057;-77
2023/05/20 08:30:08;;;;;;;6.70;4.60;;;16.10;99.90;;;15.01;100.00;97725.47;5024265;28;20057;-76
2023/05/20 08:32:36;;;;;;;5.93;3.65;;;16.00;99.90;;;15.17;100.00;97717.59;5025184;28;20053;-76
2023/05/20 08:35:04;;;;;;;7.07;3.95;;;16.00;99.90;;;15.02;100.00;97721.94;4986786;28;20088;-76
2023/05/20 08:37:31;;;;;;;7.40;4.35;;;16.00;99.90;;;15.01;100.00;97727.28;5003294;28;20132;-76
2023/05/20 08:39:58;;;;;;;7.53;4.18;;;15.90;99.90;;;15.22;100.00;97740.84;5020161;28;20193;-76
2023/05/20 08:42:25;;;;;;;6.72;4.40;;;15.90;99.90;;;15.24;100.00;97729.38;5022320;28;20275;-77
2023/05/20 08:44:54;;;;;;;6.07;4.03;;;15.90;99.90;;;15.61;100.00;97723.72;5005503;28;20060;-77
2023/05/20 08:47:22;;;;;;;8.23;3.95;;;16.10;99.90;;;15.94;100.00;97718.19;5008536;28;20141;-75
2023/05/20 08:49:49;;;;;;;6.88;4.35;;;16.40;99.90;;;16.09;100.00;97711.16;5004624;28;20144;-75
2023/05/20 08:52:21;;;;;;;7.30;3.90;;;16.80;99.90;;;16.74;100.00;97713.13;5023038;28;20041;-77
2023/05/20 08:54:50;;;;;;;;;;;17.00;99.90;;;16.27;100.00;97714.41;5020941;28;20115;-76
2023/05/20 08:57:19;;;;;;;8.55;4.03;;;17.20;99.90;;;16.27;100.00;97715.25;5012079;28;19987;-76
2023/05/20 08:59:46;;;;;;;8.43;4.45;;;17.20;99.90;;;16.20;100.00;97702.66;5026839;28;20041;-76
2023/05/20 09:02:14;;;;;;;9.60;3.88;;;17.40;99.90;;;17.00;100.00;97697.50;5026713;28;20110;-76
2023/05/20 09:04:41;;;;;;;7.00;3.58;;;17.70;99.90;;;17.10;100.00;97688.06;5028055;28;20501;-76
2023/05/20 09:07:10;;;;;;;7.32;3.88;;;17.80;99.90;;;16.83;100.00;97696.84;5004826;28;20465;-77
2023/05/20 09:09:40;;;;;;;7.68;4.35;;;17.90;99.90;;;17.00;100.00;97698.31;5029286;28;20045;-73
2023/05/20 09:12:07;;;;;;;7.30;4.20;;;18.00;99.90;;;17.02;100.00;97699.06;5030137;28;20049;-75
2023/05/20 09:14:34;;;;;;;5.82;4.15;;;17.90;99.90;;;16.88;100.00;97693.91;5021911;28;20128;-77
2023/05/20 09:17:07;;;;;;;10.75;4.40;;;18.00;99.90;;;17.54;100.00;97685.03;5011512;28;20143;-77
2023/05/20 09:19:34;;;;;;;5.40;3.70;;;18.20;99.90;;;17.83;100.00;97679.56;5011353;28;20061;-77
2023/05/20 09:22:04;;;;;;;6.68;3.33;;;18.70;99.90;;;18.13;100.00;97673.94;5009055;28;20049;-76
2023/05/20 09:24:31;;;;;;;5.43;3.97;;;18.90;99.90;;;18.85;100.00;97672.25;5013531;28;20122;-77
2023/05/20 09:26:58;;;;;;;7.43;3.80;;;19.80;99.90;;;18.25;100.00;97664.31;4993761;28;20085;-76
2023/05/20 09:29:26;;;;;;;7.80;3.67;;;20.20;99.90;;;17.56;100.00;97680.53;5027398;28;20050;-76
2023/05/20 09:31:55;;;;;;;5.85;3.90;;;19.80;99.90;;;17.25;100.00;97681.78;5032247;28;20064;-76
2023/05/20 09:34:23;;;;;;;6.75;3.65;;;19.10;99.90;;;17.40;100.00;97679.88;4996763;28;20071;-77
2023/05/20 09:36:51;;;;;;;4.97;3.67;;;19.10;99.90;;;17.95;100.00;97662.13;5014781;28;20517;-77
2023/05/20 09:39:24;;;;;;;11.65;4.07;;;19.50;99.90;;;18.82;100.00;97660.19;4978695;28;20049;-78
2023/05/20 09:42:11;;;;;;;4.70;3.33;;;19.90;99.90;;;19.18;100.00;97658.31;4998083;28;20103;-77
2023/05/20 09:44:39;;;;;;;6.75;3.97;;;20.40;99.90;;;19.30;100.00;97646.06;4983727;28;20049;-79
2023/05/20 09:47:08;;;;;;;5.72;3.40;;;20.70;99.90;;;19.81;100.00;97650.84;5004521;28;20061;-78
2023/05/20 09:49:37;;;;;;;6.57;3.78;;;20.90;99.90;;;19.31;100.00;97647.72;5012955;28;20138;-79
2023/05/20 09:52:06;;;;;;;5.43;3.53;;;21.30;99.90;;;19.94;100.00;97654.19;5010136;28;20051;-77
2023/05/20 09:54:35;;;;;;;4.72;3.00;;;21.30;99.90;;;20.08;100.00;97652.25;4995394;28;20060;-77
2023/05/20 09:57:06;;;;;;;12.52;3.83;;;21.40;99.90;;;20.04;100.00;97643.75;5009246;28;20041;-78
2023/05/20 09:59:37;;;;;;;12.73;3.17;;;21.70;99.90;;;19.82;100.00;97648.09;5012211;28;20050;-76
2023/05/20 10:02:06;;;;;;;5.90;3.42;;;21.50;99.90;;;20.46;100.00;97644.72;5033425;28;20368;-76
2023/05/20 10:04:36;;;;;;;5.80;2.72;;;21.60;99.90;;;20.78;100.00;97643.91;4999500;28;20064;-77
2023/05/20 10:07:29;;;;;;;5.72;3.42;;;22.00;99.90;;;20.37;100.00;97647.28;5006595;28;20088;-76
2023/05/20 10:10:24;;;;;;;6.82;3.45;;;21.90;99.90;;;18.77;100.00;97647.38;5021581;28;20453;-78
2023/05/20 10:13:37;;;;;;;7.30;3.30;;;20.90;99.90;;;19.29;100.00;97639.09;5009862;28;20086;-78
2023/05/20 10:16:07;;;;;;;5.20;2.90;;;20.60;99.90;;;18.84;100.00;97637.22;5029275;28;20080;-79
2023/05/20 10:19:11;;;;;;;5.93;3.25;;;20.40;99.90;;;19.24;100.00;97631.56;5030033;28;20055;-78
2023/05/20 10:21:39;;;;;;;5.38;3.47;;;20.20;99.90;;;19.93;100.00;97625.31;5010340;28;20041;-77